Time;durP1;ratioP1;P1;durP2;ratioP2;P2;SDS_P1;SDS_P2;PMS_P1;PMS_P2;Temp;Humidity;BMP_temperature;BMP_pressure;BME280_temperature;BME280_humidity;BME280_pressure;Samples;Min_cycle;Max_cycle;Signal;HPM_P1;HPM_P2
2024/02/22 00:57:34;;;;;;;1.63;1.52;;;;;;;;;;5434303;23;20241;-84
2024/02/22 01:00:01;;;;;;;1.90;1.80;;;;;;;;;;5014120;28;20652;-87
2024/02/22 01:02:29;;;;;;;1.95;1.85;;;;;;;;;;5015425;28;20686;-88
2024/02/22 01:04:56;;;;;;;2.30;2.05;;;;;;;;;;5015552;28;20282;-89
2024/02/22 01:07:24;;;;;;;3.38;1.98;;;;;;;;;;5015527;28;20254;-90
2024/02/22 01:09:51;;;;;;;2.20;2.03;;;;;;;;;;5015400;28;20203;-89
2024/02/22 02:12:05;;;;;;;1.52;1.42;;;;;;;;;;5890329;22;20666;-88
2024/02/22 02:14:32;;;;;;;1.08;1.08;;;;;;;;;;5014093;28;20311;-89
2024/02/22 02:17:00;;;;;;;1.60;1.15;;;;;;;;;;5014183;28;20306;-88
2024/02/22 02:19:29;;;;;;;1.27;1.20;;;;;;;;;;5014024;28;20288;-88
2024/02/22 02:22:07;;;;;;;1.40;1.35;;;;;;;;;;5013570;28;20223;-88
2024/02/22 02:24:41;;;;;;;1.38;1.27;;;;;;;;;;5014121;28;20819;-88
2024/02/22 03:26:54;;;;;;;0.70;0.70;;;;;;;;;;5380732;22;20757;-89
2024/02/22 03:29:22;;;;;;;0.70;0.70;;;;;;;;;;5012879;28;20198;-89
2024/02/22 03:31:50;;;;;;;0.70;0.70;;;;;;;;;;5012578;28;20223;-88
2024/02/22 03:34:17;;;;;;;1.20;1.10;;;;;;;;;;5012978;28;20569;-90
2024/02/22 03:36:46;;;;;;;0.60;0.60;;;;;;;;;;5012632;28;20229;-89
2024/02/22 04:38:59;;;;;;;0.60;0.60;;;;;;;;;;5855749;22;20265;-88
2024/02/22 04:41:27;;;;;;;0.20;0.20;;;;;;;;;;5034989;28;20210;-89
2024/02/22 04:43:54;;;;;;;0.30;0.30;;;;;;;;;;5013780;28;20282;-90
2024/02/22 04:46:22;;;;;;;0.47;0.47;;;;;;;;;;5013846;28;20286;-90
2024/02/22 04:48:50;;;;;;;0.50;0.50;;;;;;;;;;5012797;28;20356;-89
2024/02/22 04:51:17;;;;;;;0.40;0.40;;;;;;;;;;5012443;28;20210;-89
2024/02/22 05:53:30;;;;;;;1.45;1.35;;;;;;;;;;6007642;22;20295;-89
2024/02/22 05:55:58;;;;;;;1.63;0.90;;;;;;;;;;5014972;28;20583;-89
2024/02/22 05:58:25;;;;;;;0.70;0.68;;;;;;;;;;5014743;28;20286;-89
2024/02/22 06:00:53;;;;;;;0.50;0.50;;;;;;;;;;5016181;28;20757;-89
2024/02/22 06:03:21;;;;;;;0.55;0.55;;;;;;;;;;5022104;28;20226;-89
2024/02/22 07:08:05;;;;;;;0.50;0.50;;;;;;;;;;5011388;28;20245;-88
2024/02/22 07:10:33;;;;;;;0.35;0.35;;;;;;;;;;5013097;28;20651;-89
2024/02/22 07:13:01;;;;;;;0.65;0.65;;;;;;;;;;5012888;28;20649;-92
2024/02/22 07:15:29;;;;;;;0.45;0.45;;;;;;;;;;5013127;28;20576;-90
2024/02/22 07:17:56;;;;;;;0.50;0.50;;;;;;;;;;5012287;28;20653;-90
2024/02/22 07:20:24;;;;;;;0.75;0.40;;;;;;;;;;5012615;28;20401;-89
2024/02/22 08:14:58;;;;;;;0.50;0.50;;;;;;;;;;5773853;22;20202;-95
2024/02/22 08:25:23;;;;;;;0.90;0.45;;;;;;;;;;5461795;22;20229;-96
2024/02/22 08:28:00;;;;;;;0.40;0.40;;;;;;;;;;5039253;28;20171;-95
2024/02/22 09:35:25;;;;;;;0.43;0.43;;;;;;;;;;5372663;22;20265;-89
2024/02/22 09:37:52;;;;;;;0.60;0.60;;;;;;;;;;5015010;28;20581;-89
2024/02/22 09:40:21;;;;;;;0.50;0.50;;;;;;;;;;5014552;28;20223;-89
2024/02/22 09:42:49;;;;;;;0.40;0.40;;;;;;;;;;5015586;28;20199;-89
2024/02/22 09:45:17;;;;;;;0.40;0.40;;;;;;;;;;5014808;28;20309;-90
2024/02/22 09:47:47;;;;;;;0.25;0.25;;;;;;;;;;5014992;28;20687;-90
2024/02/22 09:50:33;;;;;;;0.45;0.45;;;;;;;;;;5150523;22;20222;-94
2024/02/22 09:53:15;;;;;;;0.60;0.60;;;;;;;;;;5039978;28;20175;-94
2024/02/22 09:56:13;;;;;;;0.52;0.52;;;;;;;;;;5040876;28;20167;-93
2024/02/22 09:58:52;;;;;;;1.17;1.17;;;;;;;;;;5040275;28;20190;-94
2024/02/22 10:01:25;;;;;;;0.50;0.50;;;;;;;;;;5040306;28;20251;-94
2024/02/22 10:03:54;;;;;;;0.47;0.47;;;;;;;;;;5040553;28;20202;-95
2024/02/22 10:06:26;;;;;;;0.50;0.50;;;;;;;;;;5040410;28;20186;-95
2024/02/22 10:09:04;;;;;;;0.57;0.57;;;;;;;;;;5040449;28;20172;-94
2024/02/22 10:11:37;;;;;;;0.90;0.90;;;;;;;;;;5040267;28;20226;-95
2024/02/22 10:14:10;;;;;;;0.80;0.80;;;;;;;;;;5040491;28;20171;-94
2024/02/22 10:16:48;;;;;;;0.52;0.50;;;;;;;;;;5040380;28;20171;-95
2024/02/22 10:19:24;;;;;;;0.77;0.60;;;;;;;;;;5040144;28;20236;-94
2024/02/22 10:21:56;;;;;;;1.48;0.60;;;;;;;;;;5040006;28;20210;-96
2024/02/22 10:24:36;;;;;;;0.60;0.60;;;;;;;;;;5040337;28;20178;-94
2024/02/22 10:27:09;;;;;;;1.13;1.13;;;;;;;;;;5040356;28;20172;-96
2024/02/22 10:29:41;;;;;;;0.80;0.80;;;;;;;;;;5040026;28;20187;-94
2024/02/22 10:32:21;;;;;;;0.80;0.80;;;;;;;;;;5039932;28;20170;-95
2024/02/22 10:34:52;;;;;;;0.60;0.60;;;;;;;;;;5040022;28;20232;-94
2024/02/22 10:37:23;;;;;;;0.55;0.55;;;;;;;;;;5040107;28;20231;-95
2024/02/22 10:39:59;;;;;;;0.77;0.77;;;;;;;;;;5039889;28;20172;-95
2024/02/22 10:42:30;;;;;;;0.65;0.65;;;;;;;;;;5039688;28;20191;-94
2024/02/22 10:45:10;;;;;;;0.60;0.60;;;;;;;;;;5039636;28;20191;-96
2024/02/22 10:47:50;;;;;;;0.88;0.88;;;;;;;;;;5039534;28;20210;-96
2024/02/22 10:50:25;;;;;;;0.60;0.60;;;;;;;;;;5039593;28;20204;-95
2024/02/22 10:52:56;;;;;;;0.60;0.60;;;;;;;;;;5038201;28;20175;-95
2024/02/22 10:55:34;;;;;;;0.60;0.60;;;;;;;;;;5039699;28;20267;-95
2024/02/22 10:58:05;;;;;;;0.80;0.80;;;;;;;;;;5039824;28;20178;-95
2024/02/22 11:00:35;;;;;;;0.40;0.40;;;;;;;;;;5039454;28;20199;-94
2024/02/22 11:03:11;;;;;;;0.65;0.50;;;;;;;;;;5039282;28;20167;-96
2024/02/22 11:06:06;;;;;;;0.70;0.50;;;;;;;;;;5039481;28;20198;-94
2024/02/22 11:08:39;;;;;;;0.50;0.50;;;;;;;;;;5039394;28;20320;-95
2024/02/22 11:11:10;;;;;;;0.50;0.50;;;;;;;;;;5039416;28;20177;-94
2024/02/22 11:13:41;;;;;;;0.52;0.52;;;;;;;;;;5039253;28;20171;-95
2024/02/22 11:16:20;;;;;;;1.02;1.02;;;;;;;;;;5039381;28;20210;-94
2024/02/22 11:18:55;;;;;;;0.47;0.47;;;;;;;;;;5039234;28;20202;-95
2024/02/22 11:21:33;;;;;;;0.43;0.43;;;;;;;;;;5039034;28;20199;-95
2024/02/22 11:24:14;;;;;;;0.63;0.63;;;;;;;;;;5039205;28;20171;-96
2024/02/22 11:26:50;;;;;;;0.65;0.65;;;;;;;;;;5039226;28;20171;-95
2024/02/22 11:29:43;;;;;;;0.57;0.57;;;;;;;;;;5038915;28;20174;-95
2024/02/22 11:32:29;;;;;;;0.57;0.57;;;;;;;;;;5038915;28;20235;-95
2024/02/22 11:35:06;;;;;;;0.50;0.50;;;;;;;;;;5039146;28;20198;-94
2024/02/22 11:37:47;;;;;;;0.40;0.40;;;;;;;;;;5039130;28;20171;-96
2024/02/22 11:40:25;;;;;;;0.63;0.63;;;;;;;;;;5038913;28;20192;-95
2024/02/22 11:43:17;;;;;;;0.77;0.77;;;;;;;;;;5038767;28;20205;-95
2024/02/22 11:46:12;;;;;;;;;;;;;;;;;;;;;
2024/02/22 11:48:49;;;;;;;0.70;0.70;;;;;;;;;;5039092;28;20166;-96
2024/02/22 11:51:17;;;;;;;0.88;0.88;;;;;;;;;;5038819;28;20171;-94
2024/02/22 11:54:03;;;;;;;0.80;0.80;;;;;;;;;;5038835;28;20180;-95
2024/02/22 11:56:35;;;;;;;0.85;0.85;;;;;;;;;;5038908;28;20167;-94
2024/02/22 11:59:29;;;;;;;;;;;;;;;;;;;;;
2024/02/22 12:02:01;;;;;;;0.50;0.50;;;;;;;;;;5037456;28;20213;-94
2024/02/22 12:04:32;;;;;;;0.50;0.50;;;;;;;;;;5040773;28;20274;-93
2024/02/22 12:07:01;;;;;;;0.70;0.70;;;;;;;;;;5041645;28;20198;-94
2024/02/22 12:09:29;;;;;;;0.80;0.80;;;;;;;;;;5041366;28;20211;-94
2024/02/22 12:12:00;;;;;;;0.88;0.68;;;;;;;;;;5041128;28;20186;-94
2024/02/22 12:14:32;;;;;;;0.95;0.95;;;;;;;;;;5041304;28;20371;-95
2024/02/22 12:17:11;;;;;;;1.45;1.00;;;;;;;;;;5041485;28;20218;-94
2024/02/22 12:19:42;;;;;;;0.80;0.80;;;;;;;;;;5041219;28;20205;-94
2024/02/22 15:13:41;;;;;;;0.32;0.32;;;;;;;;;;4993099;28;20207;-92
2024/02/22 15:16:10;;;;;;;0.40;0.40;;;;;;;;;;5000490;28;20203;-89
2024/02/22 15:18:38;;;;;;;0.40;0.40;;;;;;;;;;4994187;28;20207;-89
2024/02/22 15:21:06;;;;;;;0.55;0.55;;;;;;;;;;4993803;28;20231;-89
2024/02/22 15:23:35;;;;;;;0.45;0.45;;;;;;;;;;5013494;28;20223;-88
2024/02/22 15:26:04;;;;;;;0.70;0.70;;;;;;;;;;5015322;28;20231;-89
2024/02/22 15:28:31;;;;;;;1.55;0.60;;;;;;;;;;5016034;28;20200;-89
2024/02/22 15:31:00;;;;;;;0.50;0.50;;;;;;;;;;5000876;28;20203;-90
2024/02/22 15:33:28;;;;;;;0.60;0.60;;;;;;;;;;4994700;28;20659;-89
2024/02/22 15:35:56;;;;;;;0.55;0.55;;;;;;;;;;4994160;28;20295;-88
2024/02/22 15:38:27;;;;;;;0.43;0.43;;;;;;;;;;4993850;28;20282;-89
2024/02/22 15:40:55;;;;;;;0.80;0.80;;;;;;;;;;4993745;28;20280;-89
2024/02/22 15:43:22;;;;;;;0.60;0.60;;;;;;;;;;4993570;28;20223;-90
2024/02/22 15:45:52;;;;;;;0.30;0.30;;;;;;;;;;4994523;28;20303;-90
2024/02/22 15:48:21;;;;;;;0.60;0.60;;;;;;;;;;4995651;28;20207;-91
2024/02/22 15:50:49;;;;;;;0.50;0.50;;;;;;;;;;4993670;28;20200;-91
2024/02/22 15:53:17;;;;;;;0.60;0.60;;;;;;;;;;4993504;28;20282;-91
2024/02/22 15:55:44;;;;;;;0.63;0.63;;;;;;;;;;4993554;28;20637;-91
2024/02/22 15:58:13;;;;;;;0.68;0.68;;;;;;;;;;4993632;28;20719;-90
2024/02/22 16:00:42;;;;;;;0.60;0.60;;;;;;;;;;4993875;28;20204;-91
2024/02/22 16:03:10;;;;;;;0.88;0.88;;;;;;;;;;4993774;28;20228;-91
2024/02/22 16:05:39;;;;;;;0.70;0.70;;;;;;;;;;4993670;28;20196;-91
2024/02/22 16:08:07;;;;;;;0.60;0.60;;;;;;;;;;4994323;28;20282;-91
2024/02/22 16:10:35;;;;;;;0.77;0.77;;;;;;;;;;4993788;28;20227;-91
2024/02/22 16:13:03;;;;;;;0.60;0.60;;;;;;;;;;4993635;28;20725;-91
2024/02/22 16:15:30;;;;;;;0.70;0.70;;;;;;;;;;4993489;28;20231;-91
2024/02/22 16:17:58;;;;;;;0.52;0.52;;;;;;;;;;4993746;28;20650;-90
2024/02/22 16:20:26;;;;;;;0.40;0.40;;;;;;;;;;4993569;28;20639;-91
2024/02/22 16:22:55;;;;;;;0.50;0.50;;;;;;;;;;4992713;28;20672;-91
2024/02/22 16:25:22;;;;;;;0.60;0.60;;;;;;;;;;4992771;28;20220;-90
2024/02/22 16:27:50;;;;;;;0.80;0.63;;;;;;;;;;4993406;28;20295;-90
2024/02/22 16:30:18;;;;;;;0.60;0.60;;;;;;;;;;4993162;28;20195;-91
2024/02/22 16:32:45;;;;;;;0.80;0.80;;;;;;;;;;4992903;28;20215;-90
2024/02/22 16:35:13;;;;;;;0.60;0.60;;;;;;;;;;4993065;28;20650;-91
2024/02/22 16:37:41;;;;;;;0.68;0.68;;;;;;;;;;4993021;28;20299;-90
2024/02/22 16:40:12;;;;;;;0.50;0.50;;;;;;;;;;4992733;28;20298;-90
2024/02/22 16:42:40;;;;;;;0.50;0.50;;;;;;;;;;4993012;28;20254;-91
2024/02/22 16:45:08;;;;;;;0.95;0.80;;;;;;;;;;4992991;28;20231;-91
2024/02/22 16:47:36;;;;;;;0.70;0.70;;;;;;;;;;4993099;28;20690;-92
2024/02/22 16:50:04;;;;;;;0.75;0.75;;;;;;;;;;4995710;28;20619;-91
2024/02/22 16:52:32;;;;;;;1.55;0.70;;;;;;;;;;4996451;28;20220;-90
2024/02/22 16:54:59;;;;;;;0.70;0.70;;;;;;;;;;4996185;28;20526;-91
2024/02/22 16:57:28;;;;;;;0.50;0.50;;;;;;;;;;4996557;28;20234;-92
2024/02/22 16:59:56;;;;;;;0.77;0.77;;;;;;;;;;4996783;28;20258;-91
2024/02/22 17:02:24;;;;;;;0.77;0.65;;;;;;;;;;4996162;28;20231;-91
2024/02/22 17:04:52;;;;;;;0.40;0.40;;;;;;;;;;4996292;28;20238;-90
2024/02/22 17:07:19;;;;;;;0.50;0.50;;;;;;;;;;4996836;28;20261;-92
2024/02/22 17:09:47;;;;;;;0.65;0.60;;;;;;;;;;4996638;28;20677;-91
2024/02/22 17:12:15;;;;;;;0.70;0.70;;;;;;;;;;4996719;28;20322;-91
2024/02/22 17:14:46;;;;;;;0.70;0.70;;;;;;;;;;4997358;28;20292;-91
2024/02/22 17:17:14;;;;;;;0.60;0.60;;;;;;;;;;4996943;28;20196;-92
2024/02/22 17:19:41;;;;;;;0.68;0.68;;;;;;;;;;5001469;28;20279;-91
2024/02/22 17:22:09;;;;;;;0.80;0.80;;;;;;;;;;5001194;28;20227;-92
2024/02/22 17:24:39;;;;;;;0.95;0.95;;;;;;;;;;4997382;28;20761;-92
2024/02/22 17:27:06;;;;;;;0.60;0.60;;;;;;;;;;5010533;28;20204;-91
2024/02/22 17:29:34;;;;;;;0.65;0.65;;;;;;;;;;5020260;28;20197;-89
2024/02/22 17:32:03;;;;;;;1.67;1.60;;;;;;;;;;5020341;28;20219;-91
2024/02/22 17:34:30;;;;;;;0.60;0.60;;;;;;;;;;5020499;28;20204;-92
2024/02/22 17:36:58;;;;;;;1.17;1.17;;;;;;;;;;5020219;28;20203;-90
2024/02/22 17:39:25;;;;;;;0.73;0.73;;;;;;;;;;5012647;28;20208;-91
2024/02/22 17:41:53;;;;;;;0.70;0.70;;;;;;;;;;5005244;28;20306;-91
2024/02/22 17:44:22;;;;;;;0.63;0.63;;;;;;;;;;5004139;28;20219;-90
2024/02/22 17:46:49;;;;;;;0.70;0.70;;;;;;;;;;4998419;28;20216;-91
2024/02/22 17:49:19;;;;;;;0.65;0.65;;;;;;;;;;4996885;28;20298;-92
2024/02/22 17:51:47;;;;;;;0.73;0.73;;;;;;;;;;4999762;28;20219;-91
2024/02/22 17:54:14;;;;;;;0.70;0.70;;;;;;;;;;4998259;28;20290;-91
2024/02/22 17:56:42;;;;;;;1.98;0.70;;;;;;;;;;4996209;28;20211;-92
2024/02/22 17:59:09;;;;;;;0.75;0.75;;;;;;;;;;4999551;28;20456;-92
2024/02/22 18:01:37;;;;;;;0.73;0.73;;;;;;;;;;4997551;28;20250;-91
2024/02/22 18:04:05;;;;;;;1.58;0.70;;;;;;;;;;4996166;28;20295;-91
2024/02/22 18:06:34;;;;;;;0.50;0.50;;;;;;;;;;4998412;28;20307;-92
2024/02/22 18:09:03;;;;;;;0.50;0.50;;;;;;;;;;4999475;28;20219;-91
2024/02/22 18:11:31;;;;;;;0.57;0.57;;;;;;;;;;5001581;28;20216;-92
2024/02/22 18:13:58;;;;;;;0.65;0.65;;;;;;;;;;4998051;28;20208;-92
2024/02/22 18:16:26;;;;;;;0.75;0.75;;;;;;;;;;4995657;28;20290;-91
2024/02/22 18:18:53;;;;;;;0.60;0.60;;;;;;;;;;4995649;28;20286;-91
2024/02/22 18:21:21;;;;;;;0.60;0.60;;;;;;;;;;4997767;28;20216;-91
2024/02/22 18:23:51;;;;;;;0.70;0.70;;;;;;;;;;4995741;28;20278;-92
2024/02/22 18:26:19;;;;;;;0.70;0.70;;;;;;;;;;4999755;28;20254;-91
2024/02/22 18:28:47;;;;;;;0.80;0.80;;;;;;;;;;4998276;28;20291;-91
2024/02/22 18:31:15;;;;;;;0.52;0.52;;;;;;;;;;4998000;28;20243;-91
2024/02/22 18:33:42;;;;;;;0.65;0.65;;;;;;;;;;4998059;28;20223;-92
2024/02/22 18:36:10;;;;;;;0.60;0.60;;;;;;;;;;4995741;28;20223;-91
2024/02/22 18:38:41;;;;;;;0.50;0.50;;;;;;;;;;4994887;28;20290;-91
2024/02/22 18:41:12;;;;;;;0.52;0.52;;;;;;;;;;4995474;28;20258;-90
2024/02/22 18:43:40;;;;;;;0.60;0.60;;;;;;;;;;4994978;28;20210;-91
2024/02/22 18:46:08;;;;;;;0.70;0.70;;;;;;;;;;4995149;28;20224;-91
2024/02/22 18:48:35;;;;;;;0.73;0.73;;;;;;;;;;4998552;28;20286;-93
2024/02/22 18:51:03;;;;;;;0.60;0.60;;;;;;;;;;4999187;28;20279;-91
2024/02/22 18:53:30;;;;;;;0.70;0.70;;;;;;;;;;4998539;28;20584;-90
2024/02/22 18:55:59;;;;;;;0.60;0.60;;;;;;;;;;4995983;28;20278;-91
2024/02/22 18:58:28;;;;;;;0.70;0.70;;;;;;;;;;4995818;28;20203;-93
2024/02/22 19:00:56;;;;;;;0.60;0.60;;;;;;;;;;4999615;28;20210;-92
2024/02/22 19:03:23;;;;;;;0.68;0.60;;;;;;;;;;5002810;28;20226;-90
2024/02/22 19:05:51;;;;;;;0.90;0.90;;;;;;;;;;4995463;28;20316;-91
2024/02/22 19:08:19;;;;;;;1.00;1.00;;;;;;;;;;4996156;28;20223;-91
2024/02/22 19:10:47;;;;;;;0.80;0.80;;;;;;;;;;4995618;28;20363;-91
2024/02/22 19:13:14;;;;;;;0.70;0.70;;;;;;;;;;4995678;28;20296;-91
2024/02/22 19:15:43;;;;;;;1.25;1.15;;;;;;;;;;4996259;28;20286;-91
2024/02/22 19:18:11;;;;;;;1.08;1.00;;;;;;;;;;4994744;28;20291;-91
2024/02/22 19:20:38;;;;;;;0.85;0.85;;;;;;;;;;4994862;28;20617;-92
2024/02/22 19:23:06;;;;;;;1.05;1.00;;;;;;;;;;4994594;28;20247;-91
2024/02/22 19:25:34;;;;;;;0.90;0.90;;;;;;;;;;4994757;28;20258;-90
2024/02/22 19:28:03;;;;;;;0.90;0.90;;;;;;;;;;4995666;28;20207;-92
2024/02/22 19:30:31;;;;;;;1.38;1.27;;;;;;;;;;4994893;28;20211;-91
2024/02/22 19:33:00;;;;;;;0.88;0.88;;;;;;;;;;4994211;28;20231;-91
2024/02/22 19:35:27;;;;;;;1.00;1.00;;;;;;;;;;4994304;28;20204;-91
2024/02/22 19:37:55;;;;;;;1.00;1.00;;;;;;;;;;4995014;28;20676;-91
2024/02/22 19:40:22;;;;;;;0.88;0.88;;;;;;;;;;4994716;28;20290;-91
2024/02/22 19:42:50;;;;;;;1.05;0.98;;;;;;;;;;4994427;28;20658;-91
2024/02/22 19:45:18;;;;;;;1.00;1.00;;;;;;;;;;4994385;28;20203;-90
2024/02/22 19:47:45;;;;;;;1.15;1.10;;;;;;;;;;4998526;28;20290;-90
2024/02/22 19:50:14;;;;;;;0.90;0.90;;;;;;;;;;4993824;28;20286;-90
2024/02/22 19:52:43;;;;;;;1.42;1.30;;;;;;;;;;4993747;28;20306;-90
2024/02/22 19:55:11;;;;;;;1.05;1.05;;;;;;;;;;5002766;28;20279;-90
2024/02/22 19:57:39;;;;;;;1.25;1.02;;;;;;;;;;4993723;28;20282;-91
2024/02/22 20:00:10;;;;;;;1.35;1.25;;;;;;;;;;4994364;28;20582;-90
2024/02/22 20:02:37;;;;;;;1.00;1.00;;;;;;;;;;4994316;28;20266;-91
2024/02/22 20:05:05;;;;;;;1.30;1.20;;;;;;;;;;4993859;28;20203;-90
2024/02/22 20:07:34;;;;;;;1.30;1.20;;;;;;;;;;4994096;28;20243;-91
2024/02/22 20:10:04;;;;;;;1.17;1.17;;;;;;;;;;4993981;28;20200;-91
2024/02/22 20:12:31;;;;;;;1.30;1.20;;;;;;;;;;4993939;28;20242;-90
2024/02/22 20:14:59;;;;;;;1.67;1.58;;;;;;;;;;5000903;28;20259;-89
2024/02/22 20:17:27;;;;;;;1.48;1.38;;;;;;;;;;4997023;28;20238;-91
2024/02/22 20:19:54;;;;;;;1.30;1.30;;;;;;;;;;4993813;28;20218;-90
2024/02/22 20:22:22;;;;;;;1.25;1.15;;;;;;;;;;4994388;28;20302;-91
2024/02/22 20:24:51;;;;;;;1.15;1.15;;;;;;;;;;4996556;28;20203;-90
2024/02/22 20:27:18;;;;;;;1.70;1.23;;;;;;;;;;4999188;28;20294;-92
2024/02/22 20:29:46;;;;;;;2.22;1.33;;;;;;;;;;4998951;28;20750;-91
2024/02/22 20:32:14;;;;;;;1.60;1.50;;;;;;;;;;4998071;28;20299;-91
2024/02/22 20:34:42;;;;;;;1.77;1.63;;;;;;;;;;4999116;28;20742;-91
2024/02/22 20:37:09;;;;;;;1.60;1.50;;;;;;;;;;4999612;28;20737;-92
2024/02/22 20:39:37;;;;;;;1.45;1.40;;;;;;;;;;4999160;28;20207;-91
2024/02/22 20:42:09;;;;;;;1.30;1.20;;;;;;;;;;4997901;28;20227;-91
2024/02/22 20:44:36;;;;;;;1.45;1.40;;;;;;;;;;4998214;28;20563;-92
2024/02/22 20:47:04;;;;;;;1.52;1.40;;;;;;;;;;4997888;28;20709;-91
2024/02/22 20:49:32;;;;;;;1.63;1.52;;;;;;;;;;4997070;28;20259;-91
2024/02/22 20:52:00;;;;;;;1.83;1.60;;;;;;;;;;4999103;28;20283;-91
2024/02/22 20:54:28;;;;;;;1.85;1.60;;;;;;;;;;5002304;28;20710;-91
2024/02/22 20:56:56;;;;;;;1.58;1.48;;;;;;;;;;4998400;28;20270;-92
2024/02/22 20:59:25;;;;;;;1.73;1.40;;;;;;;;;;5006056;28;20729;-91
2024/02/22 21:01:52;;;;;;;1.80;1.70;;;;;;;;;;4996577;28;20311;-90
2024/02/22 21:04:20;;;;;;;2.75;1.60;;;;;;;;;;4997745;28;20238;-90
2024/02/22 21:06:49;;;;;;;1.98;1.75;;;;;;;;;;4996527;28;20223;-91
2024/02/22 21:09:16;;;;;;;1.67;1.50;;;;;;;;;;4997269;28;20219;-91
2024/02/22 21:11:44;;;;;;;1.40;1.30;;;;;;;;;;5111036;22;21190;-94
2024/02/22 21:14:12;;;;;;;1.77;1.67;;;;;;;;;;5040921;28;20168;-94
2024/02/22 21:16:44;;;;;;;1.65;1.55;;;;;;;;;;5041647;28;20191;-94
2024/02/22 21:19:12;;;;;;;1.55;1.45;;;;;;;;;;5041684;28;20167;-93
2024/02/22 21:21:41;;;;;;;1.20;1.20;;;;;;;;;;5041255;28;20172;-96
2024/02/22 21:24:12;;;;;;;1.77;1.67;;;;;;;;;;5041463;28;20234;-96
2024/02/22 21:26:41;;;;;;;1.50;1.40;;;;;;;;;;5041431;28;20206;-93
2024/02/22 21:29:09;;;;;;;1.73;1.55;;;;;;;;;;5041434;28;20198;-94
2024/02/22 21:31:36;;;;;;;1.30;1.25;;;;;;;;;;5041067;28;20194;-94
2024/02/22 21:34:07;;;;;;;1.20;1.20;;;;;;;;;;5041295;28;20194;-93
2024/02/22 21:36:37;;;;;;;1.40;1.30;;;;;;;;;;5040182;28;20198;-94
2024/02/22 21:39:06;;;;;;;0.80;0.80;;;;;;;;;;5041234;28;20175;-94
2024/02/22 21:41:34;;;;;;;0.50;0.50;;;;;;;;;;5040801;28;20183;-96
2024/02/22 21:44:02;;;;;;;0.77;0.77;;;;;;;;;;5041136;28;20175;-94
2024/02/22 21:46:30;;;;;;;0.73;0.73;;;;;;;;;;5041028;28;20178;-94
2024/02/22 21:48:58;;;;;;;0.70;0.70;;;;;;;;;;5040926;28;20190;-94
2024/02/22 21:51:27;;;;;;;0.70;0.70;;;;;;;;;;5040619;28;20198;-94
2024/02/22 21:53:56;;;;;;;2.67;0.60;;;;;;;;;;5040882;28;20186;-95
2024/02/22 21:56:24;;;;;;;0.60;0.60;;;;;;;;;;5040941;28;20176;-95
2024/02/22 21:58:52;;;;;;;0.45;0.45;;;;;;;;;;5040903;28;20186;-94
2024/02/22 22:01:20;;;;;;;0.35;0.35;;;;;;;;;;5040499;28;20218;-94
2024/02/22 22:03:48;;;;;;;0.40;0.40;;;;;;;;;;5040670;28;20183;-95
2024/02/22 22:06:17;;;;;;;0.60;0.60;;;;;;;;;;5040711;28;20175;-94
2024/02/22 22:08:48;;;;;;;0.50;0.50;;;;;;;;;;5040584;28;20247;-96
2024/02/22 22:11:16;;;;;;;0.40;0.40;;;;;;;;;;5040220;28;20171;-94
2024/02/22 22:13:51;;;;;;;0.50;0.50;;;;;;;;;;5040522;28;20190;-94
2024/02/22 22:16:19;;;;;;;0.70;0.50;;;;;;;;;;5040422;28;20194;-93
2024/02/22 22:18:47;;;;;;;0.38;0.38;;;;;;;;;;5040466;28;20190;-96
2024/02/22 22:21:18;;;;;;;1.55;0.70;;;;;;;;;;5040266;28;20171;-94
2024/02/22 22:23:49;;;;;;;0.28;0.28;;;;;;;;;;5040391;28;20202;-94
2024/02/22 22:26:17;;;;;;;0.90;0.40;;;;;;;;;;5040367;28;20239;-94
2024/02/22 22:28:45;;;;;;;0.35;0.35;;;;;;;;;;5040173;28;20247;-94
2024/02/22 22:31:13;;;;;;;0.90;0.90;;;;;;;;;;5040054;28;20171;-94
2024/02/22 22:33:42;;;;;;;0.68;0.68;;;;;;;;;;5040201;28;20235;-93
2024/02/22 22:36:14;;;;;;;1.73;0.70;;;;;;;;;;5040172;28;20171;-94
2024/02/22 22:38:49;;;;;;;0.68;0.68;;;;;;;;;;5039919;28;20163;-96
2024/02/22 22:41:20;;;;;;;0.60;0.60;;;;;;;;;;5039858;28;20172;-95
2024/02/22 22:43:47;;;;;;;0.55;0.52;;;;;;;;;;5040127;28;20167;-94
2024/02/22 22:46:15;;;;;;;0.57;0.57;;;;;;;;;;5039948;28;20167;-95
2024/02/22 22:48:43;;;;;;;2.22;0.77;;;;;;;;;;5039492;28;20179;-91
2024/02/22 22:51:10;;;;;;;0.50;0.50;;;;;;;;;;5038400;28;20171;-91
2024/02/22 22:53:38;;;;;;;0.50;0.50;;;;;;;;;;5068616;23;20219;-95
2024/02/22 22:56:09;;;;;;;0.88;0.60;;;;;;;;;;5039819;28;20178;-96
2024/02/22 22:58:36;;;;;;;0.50;0.50;;;;;;;;;;5039782;28;20171;-94
2024/02/22 23:01:04;;;;;;;1.00;0.70;;;;;;;;;;5039579;28;20198;-94
2024/02/22 23:03:39;;;;;;;1.42;0.60;;;;;;;;;;5039503;28;20186;-95
2024/02/22 23:06:08;;;;;;;2.88;0.60;;;;;;;;;;5038530;28;20186;-95
2024/02/22 23:08:40;;;;;;;0.65;0.55;;;;;;;;;;5166732;22;20227;-96
2024/02/22 23:11:10;;;;;;;0.65;0.60;;;;;;;;;;5039348;28;20182;-96
2024/02/22 23:13:39;;;;;;;0.50;0.50;;;;;;;;;;5039382;28;20171;-94
2024/02/22 23:16:11;;;;;;;0.40;0.40;;;;;;;;;;5039292;28;20182;-94
2024/02/22 23:18:45;;;;;;;0.40;0.40;;;;;;;;;;5039345;28;20167;-96
2024/02/22 23:23:46;;;;;;;0.50;0.50;;;;;;;;;;5012269;28;20211;-94
2024/02/22 23:26:16;;;;;;;0.45;0.45;;;;;;;;;;5015915;28;20321;-91
2024/02/22 23:28:43;;;;;;;0.40;0.40;;;;;;;;;;5014050;28;20797;-92
2024/02/22 23:31:11;;;;;;;0.65;0.43;;;;;;;;;;5014537;28;20282;-91
2024/02/22 23:33:38;;;;;;;1.60;0.93;;;;;;;;;;5013574;28;20211;-92
2024/02/22 23:36:08;;;;;;;0.70;0.60;;;;;;;;;;5013684;28;20310;-92
2024/02/22 23:38:35;;;;;;;0.80;0.80;;;;;;;;;;5013891;28;20305;-93
2024/02/22 23:41:03;;;;;;;0.60;0.60;;;;;;;;;;5021187;28;20282;-91
2024/02/22 23:43:32;;;;;;;1.33;0.52;;;;;;;;;;5013244;28;20617;-92
2024/02/22 23:46:00;;;;;;;0.68;0.50;;;;;;;;;;5019486;28;20225;-92
2024/02/22 23:48:27;;;;;;;0.88;0.55;;;;;;;;;;5036618;28;20250;-90
2024/02/22 23:50:55;;;;;;;0.60;0.60;;;;;;;;;;5037771;28;20187;-92
2024/02/22 23:53:23;;;;;;;1.17;0.47;;;;;;;;;;5037204;28;20242;-90
2024/02/22 23:55:51;;;;;;;0.50;0.50;;;;;;;;;;5037482;28;20207;-91
2024/02/22 23:58:19;;;;;;;0.73;0.73;;;;;;;;;;5019893;28;20214;-91
